SBUL/UDI METAR and TAF weather

Enter ICAO airport designator
Station Type Date Time Source
SBUL METAR 2022/06/26 09:00 UTC NOAA

SBUL 260900Z 12006KT CAVOK 16/06 Q1020


Station Type Date Time Source
SBUL Decoded METAR 2022/06/26 09:00 UTC NOAA

Uberlandia , Brazil (SBUL) 18-53S 048-14W
Jun 26, 2022 - 05:00 AM EDT / 2022.06.26 0900 UTC
Wind: from the ESE (120 degrees) at 7 MPH (6 KT):0
Visibility: greater than 7 mile(s):0
Temperature: 60 F (16 C)
Dew Point: 42 F (6 C)
Relative Humidity: 51%
Pressure (altimeter): 30.12 in. Hg (1020 hPa)
ob: SBUL 260900Z 12006KT CAVOK 16/06 Q1020
cycle: 9

Station Type Date Time Source
SBUL TAF 2022/06/26 00:27 UTC NOAA

TAF SBUL 252100Z 2600/2612 12006KT CAVOK TN14/2608Z TX19/2612Z
RMK PGH

Example: see airport list